createdAt,value
2018-12-29T00:00:53.544Z,15.3
2018-12-29T00:01:55.995Z,15.3
2018-12-29T00:02:58.155Z,15.4
2018-12-29T00:04:00.308Z,15.5
2018-12-29T00:05:02.734Z,15.4
2018-12-29T00:06:04.900Z,15.5
2018-12-29T00:07:07.322Z,15.6
2018-12-29T00:08:09.494Z,15.6
2018-12-29T00:09:11.652Z,15.6
2018-12-29T00:10:13.791Z,15.6
2018-12-29T00:11:15.967Z,15.7
2018-12-29T00:12:17.865Z,15.6
2018-12-29T00:13:20.022Z,15.7
2018-12-29T00:14:22.184Z,15.8
2018-12-29T00:15:24.350Z,15.7
2018-12-29T00:16:26.481Z,15.8
2018-12-29T00:17:28.928Z,15.8
2018-12-29T00:18:31.366Z,15.8
2018-12-29T00:19:33.503Z,15.9
2018-12-29T00:20:35.941Z,15.8
2018-12-29T00:21:37.826Z,15.7
2018-12-29T00:22:39.692Z,15.7
2018-12-29T00:23:42.154Z,15.7
2018-12-29T00:24:44.560Z,15.7
2018-12-29T00:25:46.709Z,15.6
2018-12-29T00:26:48.855Z,15.7
2018-12-29T00:27:51.019Z,15.8
2018-12-29T00:28:52.919Z,15.7
2018-12-29T00:29:55.054Z,15.7
2018-12-29T00:30:57.210Z,15.7
2018-12-29T00:31:59.661Z,15.8
2018-12-29T00:33:02.082Z,15.8
2018-12-29T00:34:04.517Z,15.8
2018-12-29T00:35:06.931Z,15.9
2018-12-29T00:36:09.353Z,15.9
2018-12-29T00:37:11.791Z,15.9
2018-12-29T00:38:14.217Z,16
2018-12-29T00:39:16.340Z,15.9
2018-12-29T00:40:18.778Z,16
2018-12-29T00:41:20.972Z,15.9
2018-12-29T00:42:23.122Z,16.1
2018-12-29T00:43:25.562Z,16.1
2018-12-29T00:44:27.711Z,15.9
2018-12-29T00:45:30.136Z,16
2018-12-29T00:46:32.584Z,15.8
2018-12-29T00:47:35.007Z,15.8
2018-12-29T00:48:37.169Z,15.8
2018-12-29T00:49:39.613Z,15.7
2018-12-29T00:50:41.763Z,15.7
2018-12-29T00:51:44.193Z,15.8
2018-12-29T00:52:46.621Z,15.8
2018-12-29T00:53:49.041Z,15.8
2018-12-29T00:54:51.463Z,15.9
2018-12-29T00:55:53.893Z,15.8
2018-12-29T00:56:55.779Z,16
2018-12-29T00:57:57.931Z,16
2018-12-29T00:59:00.359Z,15.9
2018-12-29T01:00:02.779Z,16
2018-12-29T01:01:04.941Z,16.1
2018-12-29T01:02:07.081Z,16.1
2018-12-29T01:03:09.509Z,16.2
2018-12-29T01:04:11.934Z,16.2
2018-12-29T01:05:14.355Z,16.2
2018-12-29T01:06:16.535Z,16.2
2018-12-29T01:07:18.974Z,16.2
2018-12-29T01:08:21.415Z,16.1
2018-12-29T01:09:23.833Z,16.2
2018-12-29T01:10:26.264Z,16.2
2018-12-29T01:11:28.705Z,16.2
2018-12-29T01:12:31.132Z,16.3
2018-12-29T01:13:33.552Z,16.3
2018-12-29T01:14:35.983Z,16.2
2018-12-29T01:15:38.417Z,16.3
2018-12-29T01:16:40.552Z,16.3
2018-12-29T01:17:42.696Z,16.3
2018-12-29T01:18:45.120Z,16.3
2018-12-29T01:19:47.316Z,16.3
2018-12-29T01:20:49.473Z,16.3
2018-12-29T01:21:51.643Z,16.5
2018-12-29T01:22:54.094Z,16.4
2018-12-29T01:23:56.518Z,16.3
2018-12-29T01:24:58.978Z,16.4
2018-12-29T01:26:01.141Z,16.4
2018-12-29T01:27:03.585Z,16.5
2018-12-29T01:28:05.733Z,16.5
2018-12-29T01:29:08.167Z,16.5
2018-12-29T01:30:10.583Z,16.5
2018-12-29T01:31:13.011Z,16.5
2018-12-29T01:32:15.200Z,16.4
2018-12-29T01:33:17.351Z,16.6
2018-12-29T01:34:19.219Z,16.5
2018-12-29T01:35:21.116Z,16.5
2018-12-29T01:36:23.544Z,16.4
2018-12-29T01:37:26.039Z,16.5
2018-12-29T01:38:27.907Z,16.5
2018-12-29T01:39:30.082Z,16.6
2018-12-29T01:40:32.515Z,16.4
2018-12-29T01:41:34.937Z,16.5
2018-12-29T01:42:37.362Z,16.3
2018-12-29T01:43:39.795Z,16.5
2018-12-29T01:44:42.224Z,16.5
2018-12-29T01:45:44.385Z,16.5
2018-12-29T01:46:46.812Z,16.4
2018-12-29T01:47:48.967Z,16.6
2018-12-29T01:48:51.124Z,16.6
2018-12-29T01:49:53.560Z,16.5
2018-12-29T01:50:56.011Z,16.6
2018-12-29T01:51:58.454Z,16.5
2018-12-29T01:53:00.870Z,16.5
2018-12-29T01:54:03.302Z,16.7
2018-12-29T01:55:05.524Z,16.6
2018-12-29T01:56:07.944Z,16.5
2018-12-29T01:57:10.370Z,16.5
2018-12-29T01:58:12.512Z,16.5
2018-12-29T01:59:14.942Z,16.5
2018-12-29T02:00:17.374Z,16.5
2018-12-29T02:01:19.800Z,16.6
2018-12-29T02:02:36.894Z,16.6
2018-12-29T02:03:39.024Z,16.7
2018-12-29T02:04:41.462Z,16.6
2018-12-29T02:05:43.898Z,16.6
2018-12-29T02:06:46.324Z,16.6
2018-12-29T02:07:48.770Z,16.7
2018-12-29T02:08:50.362Z,16.6
2018-12-29T02:09:52.788Z,16.7
2018-12-29T02:10:54.985Z,16.7
2018-12-29T02:11:56.854Z,16.6
2018-12-29T02:12:58.994Z,16.7
2018-12-29T02:14:01.144Z,16.7
2018-12-29T02:15:03.581Z,16.6
2018-12-29T02:16:05.713Z,16.6
2018-12-29T02:17:08.154Z,16.6
2018-12-29T02:18:10.310Z,16.5
2018-12-29T02:19:12.743Z,16.7
2018-12-29T02:20:15.194Z,16.7
2018-12-29T02:21:17.617Z,16.7
2018-12-29T02:22:20.054Z,16.7
2018-12-29T02:23:22.481Z,16.7
2018-12-29T02:24:24.632Z,16.8
2018-12-29T02:25:27.064Z,16.7
2018-12-29T02:26:29.499Z,16.7
2018-12-29T02:27:31.654Z,16.7
2018-12-29T02:28:33.562Z,16.7
2018-12-29T02:29:35.428Z,16.7
2018-12-29T02:30:37.856Z,16.7
2018-12-29T02:31:40.285Z,16.7
2018-12-29T02:32:42.711Z,16.6
2018-12-29T02:33:45.154Z,16.7
2018-12-29T02:34:47.581Z,16.7
2018-12-29T02:35:49.732Z,16.7
2018-12-29T02:36:51.933Z,16.7
2018-12-29T02:37:54.376Z,16.7
2018-12-29T02:38:56.812Z,16.7
2018-12-29T02:39:59.236Z,16.6
2018-12-29T02:41:01.403Z,16.7
2018-12-29T02:42:03.565Z,16.7
2018-12-29T02:43:06.004Z,16.7
2018-12-29T02:44:08.497Z,16.7
2018-12-29T02:45:10.925Z,16.7
2018-12-29T02:46:13.354Z,16.7
2018-12-29T02:47:15.785Z,16.7
2018-12-29T02:48:18.211Z,16.7
2018-12-29T02:49:20.625Z,16.7
2018-12-29T02:50:22.864Z,16.7
2018-12-29T02:51:25.025Z,16.8
2018-12-29T02:52:27.442Z,16.7
2018-12-29T02:53:29.895Z,16.7
2018-12-29T02:54:32.322Z,16.8
2018-12-29T02:55:34.762Z,16.7
2018-12-29T02:56:37.190Z,16.7
2018-12-29T02:57:39.355Z,16.7
2018-12-29T02:58:41.784Z,16.8
2018-12-29T02:59:43.932Z,16.8
2018-12-29T03:00:46.354Z,16.8
2018-12-29T03:01:48.514Z,16.7
2018-12-29T03:02:50.393Z,16.7
2018-12-29T03:03:52.823Z,16.7
2018-12-29T03:04:55.244Z,16.7
2018-12-29T03:05:57.695Z,16.7
2018-12-29T03:06:59.863Z,16.7
2018-12-29T03:08:02.294Z,16.7
2018-12-29T03:09:04.729Z,16.8
2018-12-29T03:10:07.159Z,16.8
2018-12-29T03:11:09.575Z,16.8
2018-12-29T03:12:11.714Z,16.8
2018-12-29T03:13:13.890Z,16.8
2018-12-29T03:14:16.332Z,16.9
2018-12-29T03:15:18.544Z,16.8
2018-12-29T03:16:20.425Z,16.8
2018-12-29T03:17:22.582Z,16.8
2018-12-29T03:18:25.034Z,16.9
2018-12-29T03:19:27.194Z,16.9
2018-12-29T03:20:29.618Z,16.9
2018-12-29T03:21:32.042Z,16.9
2018-12-29T03:22:34.463Z,16.9
2018-12-29T03:23:36.965Z,16.9
2018-12-29T03:24:39.403Z,16.9
2018-12-29T03:25:41.828Z,16.9
2018-12-29T03:26:43.716Z,16.8
2018-12-29T03:27:45.854Z,16.9
2018-12-29T03:28:48.029Z,17
2018-12-29T03:29:50.184Z,16.9
2018-12-29T03:30:52.616Z,16.9
2018-12-29T03:31:55.047Z,17
2018-12-29T03:32:57.338Z,17
2018-12-29T03:33:59.494Z,17
2018-12-29T03:35:01.351Z,16.9
2018-12-29T03:36:03.852Z,16.9
2018-12-29T03:37:06.309Z,16.9
2018-12-29T03:38:08.735Z,16.9
2018-12-29T03:39:10.887Z,17
2018-12-29T03:40:13.033Z,17
2018-12-29T03:41:15.472Z,16.9
2018-12-29T03:42:17.901Z,16.9
2018-12-29T03:43:20.075Z,17
2018-12-29T03:44:22.236Z,17
2018-12-29T03:45:24.666Z,16.9
2018-12-29T03:46:27.080Z,16.9
2018-12-29T03:47:29.514Z,17
2018-12-29T03:48:31.931Z,17.1
2018-12-29T03:49:34.085Z,17
2018-12-29T03:50:36.235Z,17
2018-12-29T03:51:38.400Z,17
2018-12-29T03:52:40.836Z,17
2018-12-29T03:53:43.270Z,17
2018-12-29T03:54:45.708Z,17
2018-12-29T03:55:47.861Z,17.1
2018-12-29T03:56:50.026Z,17
2018-12-29T03:57:52.454Z,17
2018-12-29T03:58:54.604Z,17
2018-12-29T03:59:57.094Z,17
2018-12-29T04:00:59.515Z,17.1
2018-12-29T04:02:01.964Z,16.9
2018-12-29T04:03:04.402Z,17
2018-12-29T04:04:05.992Z,16.9
2018-12-29T04:05:08.423Z,16.9
2018-12-29T04:06:10.855Z,16.8
2018-12-29T04:07:13.286Z,16.8
2018-12-29T04:08:15.435Z,16.8
2018-12-29T04:09:17.874Z,16.7
2018-12-29T04:10:20.054Z,16.7
2018-12-29T04:11:22.195Z,16.7
2018-12-29T04:12:24.620Z,16.7
2018-12-29T04:13:27.059Z,16.7
2018-12-29T04:14:29.247Z,16.7
2018-12-29T04:15:31.682Z,16.6
2018-12-29T04:16:34.152Z,16.6
2018-12-29T04:17:36.309Z,16.6
2018-12-29T04:18:38.739Z,16.5
2018-12-29T04:19:40.885Z,16.5
2018-12-29T04:20:43.309Z,16.6
2018-12-29T04:21:45.454Z,16.5
2018-12-29T04:22:47.885Z,16.6
2018-12-29T04:23:50.054Z,16.6
2018-12-29T04:24:52.497Z,16.6
2018-12-29T04:25:54.921Z,16.4
2018-12-29T04:26:57.359Z,16.6
2018-12-29T04:27:59.323Z,16.6
2018-12-29T04:29:01.746Z,16.6
2018-12-29T04:30:04.181Z,16.7
2018-12-29T04:31:06.596Z,16.5
2018-12-29T04:32:09.027Z,16.4
2018-12-29T04:33:11.181Z,16.5
2018-12-29T04:34:13.316Z,16.6
2018-12-29T04:35:15.191Z,16.4
2018-12-29T04:36:17.643Z,16.5
2018-12-29T04:37:19.775Z,16.5
2018-12-29T04:38:22.199Z,16.5
2018-12-29T04:39:23.509Z,16.5
2018-12-29T04:40:25.921Z,16.6
2018-12-29T04:41:28.086Z,16.5
2018-12-29T04:42:30.532Z,16.5
2018-12-29T04:43:32.956Z,16.5
2018-12-29T04:44:35.095Z,16.4
2018-12-29T04:45:37.269Z,16.5
2018-12-29T04:46:39.437Z,16.5
2018-12-29T04:47:41.909Z,16.5
2018-12-29T04:48:44.351Z,16.4
2018-12-29T04:49:46.768Z,16.5
2018-12-29T04:50:49.192Z,16.4
2018-12-29T04:51:51.615Z,16.3
2018-12-29T04:52:53.787Z,16.4
2018-12-29T04:53:56.296Z,16.4
2018-12-29T04:54:58.733Z,16.5
2018-12-29T04:56:01.164Z,16.5
2018-12-29T04:57:03.589Z,16.5
2018-12-29T04:58:05.728Z,16.3
2018-12-29T04:59:07.895Z,16.4
2018-12-29T05:00:10.315Z,16.6
2018-12-29T05:01:12.472Z,16.5
2018-12-29T05:02:14.619Z,16.5
2018-12-29T05:03:17.035Z,16.4
2018-12-29T05:04:19.183Z,16.5
2018-12-29T05:05:21.595Z,16.3
2018-12-29T05:06:24.035Z,16.5
2018-12-29T05:07:26.475Z,16.5
2018-12-29T05:08:28.899Z,16.4
2018-12-29T05:09:31.075Z,16.5
2018-12-29T05:10:33.245Z,16.4
2018-12-29T05:11:35.697Z,16.5
2018-12-29T05:12:38.127Z,16.5
2018-12-29T05:13:40.296Z,16.5
2018-12-29T05:14:42.465Z,16.5
2018-12-29T05:15:44.887Z,16.4
2018-12-29T05:16:47.311Z,16.5
2018-12-29T05:17:49.193Z,16.4
2018-12-29T05:18:51.348Z,16.4
2018-12-29T05:19:53.244Z,16.3
2018-12-29T05:20:55.673Z,16.4
2018-12-29T05:21:57.826Z,16.4
2018-12-29T05:22:59.977Z,16.4
2018-12-29T05:24:01.854Z,16.4
2018-12-29T05:25:03.763Z,16.4
2018-12-29T05:26:05.933Z,16.5
2018-12-29T05:27:08.366Z,16.4
2018-12-29T05:28:10.812Z,16.4
2018-12-29T05:29:12.691Z,16.3
2018-12-29T05:30:14.583Z,16.4
2018-12-29T05:31:16.453Z,16.4
2018-12-29T05:32:18.874Z,16.5
2018-12-29T05:33:21.295Z,16.3
2018-12-29T05:34:23.723Z,16.4
2018-12-29T05:35:25.632Z,16.4
2018-12-29T05:36:27.791Z,16.4
2018-12-29T05:37:30.223Z,16.4
2018-12-29T05:38:32.689Z,16.3
2018-12-29T05:39:34.835Z,16.3
2018-12-29T05:40:36.424Z,16.4
2018-12-29T05:41:38.856Z,16.3
2018-12-29T05:42:41.282Z,16.4
2018-12-29T05:43:43.438Z,16.3
2018-12-29T05:44:45.864Z,16.4
2018-12-29T05:45:48.290Z,16.4
2018-12-29T05:46:50.450Z,16.3
2018-12-29T05:47:52.929Z,16.4
2018-12-29T05:48:55.364Z,16.4
2018-12-29T05:49:57.804Z,16.4
2018-12-29T05:51:00.243Z,16.3
2018-12-29T05:52:02.466Z,16.3
2018-12-29T05:53:04.910Z,16.4
2018-12-29T05:54:07.094Z,16.4
2018-12-29T05:55:08.970Z,16.4
2018-12-29T05:56:11.393Z,16.3
2018-12-29T05:57:13.548Z,16.3
2018-12-29T05:58:15.686Z,16.4
2018-12-29T05:59:18.110Z,16.4
2018-12-29T06:00:20.537Z,16.3
2018-12-29T06:01:22.982Z,16.4
2018-12-29T06:02:25.400Z,16.4
2018-12-29T06:03:27.546Z,16.4
2018-12-29T06:04:29.712Z,16.4
2018-12-29T06:05:32.142Z,16.4
2018-12-29T06:06:34.576Z,16.3
2018-12-29T06:07:37.002Z,16.4
2018-12-29T06:08:39.174Z,16.4
2018-12-29T06:09:41.594Z,16.3
2018-12-29T06:10:44.026Z,16.3
2018-12-29T06:11:46.171Z,16.3
2018-12-29T06:12:48.594Z,16.3
2018-12-29T06:13:51.028Z,16.4
2018-12-29T06:14:52.897Z,16.4
2018-12-29T06:15:55.053Z,16.3
2018-12-29T06:16:57.485Z,16.3
2018-12-29T06:17:59.934Z,16.4
2018-12-29T06:19:02.090Z,16.3
2018-12-29T06:20:04.525Z,16.3
2018-12-29T06:21:06.954Z,16.4
2018-12-29T06:22:09.139Z,16.3
2018-12-29T06:23:11.573Z,16.3
2018-12-29T06:24:14.008Z,16.4
2018-12-29T06:25:16.513Z,16.4
2018-12-29T06:26:18.950Z,16.3
2018-12-29T06:27:21.378Z,16.4
2018-12-29T06:28:23.814Z,16.4
2018-12-29T06:29:25.962Z,16.4
2018-12-29T06:30:28.385Z,16.4
2018-12-29T06:31:30.551Z,16.4
2018-12-29T06:32:32.983Z,16.3
2018-12-29T06:33:35.424Z,16.3
2018-12-29T06:34:37.853Z,16.3
2018-12-29T06:35:40.284Z,16.3
2018-12-29T06:36:42.458Z,16.3
2018-12-29T06:37:44.883Z,16.4
2018-12-29T06:38:47.060Z,16.4
2018-12-29T06:39:49.490Z,16.3
2018-12-29T06:40:51.940Z,16.3
2018-12-29T06:41:54.363Z,16.4
2018-12-29T06:42:56.788Z,16.4
2018-12-29T06:43:58.644Z,16.3
2018-12-29T06:45:01.074Z,16.2
2018-12-29T06:46:02.985Z,16.3
2018-12-29T06:47:05.415Z,16.4
2018-12-29T06:48:07.854Z,16.3
2018-12-29T06:49:09.742Z,16.3
2018-12-29T06:50:12.182Z,16.3
2018-12-29T06:51:14.614Z,16.3
2018-12-29T06:52:16.768Z,16.3
2018-12-29T06:53:18.921Z,16.3
2018-12-29T06:54:21.345Z,16.3
2018-12-29T06:55:23.512Z,16.3
2018-12-29T06:56:25.924Z,16.3
2018-12-29T06:57:27.829Z,16.3
2018-12-29T06:58:29.972Z,16.3
2018-12-29T06:59:32.407Z,16.4
2018-12-29T07:00:34.835Z,16.3
2018-12-29T07:01:37.324Z,16.3
2018-12-29T07:02:39.469Z,16.4
2018-12-29T07:03:41.338Z,16.3
2018-12-29T07:04:43.764Z,16.3
2018-12-29T07:05:46.184Z,16.3
2018-12-29T07:06:48.626Z,16.3
2018-12-29T07:07:51.060Z,16.4
2018-12-29T07:08:53.486Z,16.3
2018-12-29T07:09:55.644Z,16.3
2018-12-29T07:10:57.782Z,16.2
2018-12-29T07:12:00.270Z,16.3
2018-12-29T07:13:02.704Z,16.3
2018-12-29T07:14:04.872Z,16.4
2018-12-29T07:15:07.297Z,16.2
2018-12-29T07:16:09.725Z,16.3
2018-12-29T07:17:12.152Z,16.3
2018-12-29T07:18:14.584Z,16.3
2018-12-29T07:19:17.036Z,16.3
2018-12-29T07:20:19.473Z,16.3
2018-12-29T07:21:21.904Z,16.2
2018-12-29T07:22:24.327Z,16.3
2018-12-29T07:23:26.804Z,16.3
2018-12-29T07:24:28.683Z,16.3
2018-12-29T07:25:31.116Z,16.3
2018-12-29T07:26:33.554Z,16.3
2018-12-29T07:27:36.011Z,16.3
2018-12-29T07:28:38.446Z,16.3
2018-12-29T07:29:40.869Z,16.3
2018-12-29T07:30:43.293Z,16.3
2018-12-29T07:31:45.775Z,16.3
2018-12-29T07:32:47.998Z,16.3
2018-12-29T07:33:50.172Z,16.3
2018-12-29T07:34:52.606Z,16.3
2018-12-29T07:35:54.755Z,16.3
2018-12-29T07:36:57.198Z,16.3
2018-12-29T07:37:59.625Z,16.3
2018-12-29T07:39:02.044Z,16.2
2018-12-29T07:40:04.484Z,16.2
2018-12-29T07:41:06.935Z,16.3
2018-12-29T07:42:08.828Z,16.2
2018-12-29T07:43:11.252Z,16.3
2018-12-29T07:44:13.664Z,16.3
2018-12-29T07:45:16.097Z,16.3
2018-12-29T07:46:18.254Z,16.3
2018-12-29T07:47:20.683Z,16.3
2018-12-29T07:48:23.118Z,16.2
2018-12-29T07:49:25.012Z,16.3
2018-12-29T07:50:27.452Z,16.3
2018-12-29T07:51:29.890Z,16.3
2018-12-29T07:52:32.307Z,16.3
2018-12-29T07:53:34.742Z,16.2
2018-12-29T07:54:36.908Z,16.2
2018-12-29T07:55:38.850Z,16.3
2018-12-29T07:56:41.285Z,16.2
2018-12-29T07:57:43.724Z,16.3
2018-12-29T07:58:46.148Z,16.3
2018-12-29T07:59:48.606Z,16.3
2018-12-29T08:00:51.036Z,16.3
2018-12-29T08:01:53.476Z,16.3
2018-12-29T08:02:55.902Z,16.3
2018-12-29T08:03:58.066Z,16.3
2018-12-29T08:05:00.497Z,16.3
2018-12-29T08:06:02.696Z,16.3
2018-12-29T08:07:04.871Z,16.2
2018-12-29T08:08:07.037Z,16.3
2018-12-29T08:09:08.920Z,16.3
2018-12-29T08:10:11.376Z,16.3
2018-12-29T08:11:13.924Z,16.3
2018-12-29T08:12:16.365Z,16.2
2018-12-29T08:13:18.797Z,16.3
2018-12-29T08:14:21.225Z,16.3
2018-12-29T08:15:23.393Z,16.3
2018-12-29T08:16:25.567Z,16.3
2018-12-29T08:17:27.752Z,16.4
2018-12-29T08:18:30.179Z,16.3
2018-12-29T08:19:32.333Z,16.3
2018-12-29T08:20:34.788Z,16.3
2018-12-29T08:21:36.956Z,16.2
2018-12-29T08:22:39.139Z,16.3
2018-12-29T08:23:41.563Z,16.2
2018-12-29T08:24:44.016Z,16.3
2018-12-29T08:25:46.479Z,16.3
2018-12-29T08:26:48.339Z,16.3
2018-12-29T08:27:50.516Z,16.4
2018-12-29T08:28:52.960Z,16.3
2018-12-29T08:29:55.114Z,16.3
2018-12-29T08:30:57.558Z,16.3
2018-12-29T08:32:00.033Z,16.3
2018-12-29T08:33:02.187Z,16.3
2018-12-29T08:34:04.619Z,16.2
2018-12-29T08:35:08.553Z,16.3
2018-12-29T08:36:10.990Z,16.3
2018-12-29T08:37:13.624Z,16.2
2018-12-29T08:38:16.183Z,16.2
2018-12-29T08:39:18.411Z,16.3
2018-12-29T08:40:20.867Z,16.2
2018-12-29T08:41:23.316Z,16.3
2018-12-29T08:42:24.954Z,16.3
2018-12-29T08:43:27.395Z,16.2
2018-12-29T08:44:29.847Z,16.2
2018-12-29T08:45:32.006Z,16.3
2018-12-29T08:46:33.884Z,16.3
2018-12-29T08:47:36.035Z,16.2
2018-12-29T08:48:38.201Z,16.2
2018-12-29T08:49:41.580Z,16.3
2018-12-29T08:50:43.724Z,16.2
2018-12-29T08:51:45.644Z,16.3
2018-12-29T08:52:47.824Z,16.2
2018-12-29T08:53:50.257Z,16.2
2018-12-29T08:54:52.690Z,16.3
2018-12-29T08:55:55.110Z,16.3
2018-12-29T08:56:56.972Z,16.3
2018-12-29T08:57:58.879Z,16.3
2018-12-29T08:59:01.007Z,16.3
2018-12-29T09:00:03.459Z,16.3
2018-12-29T09:01:05.897Z,16.2
2018-12-29T09:02:08.065Z,16.3
2018-12-29T09:03:10.216Z,16.3
2018-12-29T09:04:12.655Z,16.3
2018-12-29T09:05:14.840Z,16.3
2018-12-29T09:06:16.716Z,16.3
2018-12-29T09:07:18.606Z,16.3
2018-12-29T09:08:20.779Z,16.3
2018-12-29T09:09:23.210Z,16.2
2018-12-29T09:10:25.653Z,16.3
2018-12-29T09:11:27.551Z,16.3
2018-12-29T09:12:29.421Z,16.3
2018-12-29T09:13:31.617Z,16.3
2018-12-29T09:14:33.785Z,16.2
2018-12-29T09:15:35.947Z,16.3
2018-12-29T09:16:37.855Z,16.2
2018-12-29T09:17:40.310Z,16.2
2018-12-29T09:19:47.467Z,16.3
2018-12-29T09:20:49.648Z,16.3
2018-12-29T09:21:52.076Z,16.3
2018-12-29T09:22:54.531Z,16.3
2018-12-29T09:23:56.970Z,16.2
2018-12-29T09:24:59.145Z,16.2
2018-12-29T09:26:01.728Z,16.3
2018-12-29T09:27:05.751Z,16.3
2018-12-29T09:28:07.635Z,16.3
2018-12-29T09:29:10.064Z,16.3
2018-12-29T09:30:12.230Z,16.2
2018-12-29T09:31:14.655Z,16.3
2018-12-29T09:32:17.135Z,16.3
2018-12-29T09:33:19.293Z,16.2
2018-12-29T09:34:23.076Z,16.3
2018-12-29T09:35:25.517Z,16.3
2018-12-29T09:36:27.660Z,16.2
2018-12-29T09:37:29.813Z,16.3
2018-12-29T09:38:32.264Z,16.3
2018-12-29T09:39:34.687Z,16.2
2018-12-29T09:40:37.127Z,16.3
2018-12-29T09:41:39.578Z,16.3
2018-12-29T09:42:42.013Z,16.3
2018-12-29T09:43:44.429Z,16.3
2018-12-29T09:44:46.297Z,16.3
2018-12-29T09:45:48.745Z,16.3
2018-12-29T09:46:50.610Z,16.3
2018-12-29T09:47:53.057Z,16.3
2018-12-29T09:48:55.484Z,16.4
2018-12-29T09:49:57.641Z,16.6
2018-12-29T09:50:59.777Z,16.7
2018-12-29T09:52:02.192Z,16.7
2018-12-29T09:53:04.664Z,16.8
2018-12-29T09:54:07.134Z,17
2018-12-29T09:55:08.723Z,16.8
2018-12-29T09:56:10.883Z,16.9
2018-12-29T09:57:13.045Z,17
2018-12-29T09:58:15.204Z,17.1
2018-12-29T09:59:17.635Z,17.2
2018-12-29T10:00:19.530Z,17.3
2018-12-29T10:01:21.965Z,17.4
2018-12-29T10:02:24.407Z,17.4
2018-12-29T10:03:26.560Z,17.5
2018-12-29T10:04:28.978Z,17.5
2018-12-29T10:05:30.834Z,17.6
2018-12-29T10:06:33.270Z,17.7
2018-12-29T10:07:35.696Z,17.7
2018-12-29T10:08:38.148Z,17.7
2018-12-29T10:09:40.574Z,17.8
2018-12-29T10:10:43.006Z,17.8
2018-12-29T10:11:45.431Z,17.8
2018-12-29T10:12:47.858Z,17.8
2018-12-29T10:13:50.277Z,17.8
2018-12-29T10:14:52.185Z,17.8
2018-12-29T10:15:54.069Z,18
2018-12-29T10:16:56.505Z,17.9
2018-12-29T10:17:58.952Z,17.9
2018-12-29T10:19:01.393Z,17.9
2018-12-29T10:20:03.553Z,18
2018-12-29T10:21:05.713Z,17.9
2018-12-29T10:22:08.144Z,18
2018-12-29T10:23:10.579Z,17.9
2018-12-29T10:24:13.013Z,17.9
2018-12-29T10:27:01.861Z,18
2018-12-29T10:28:04.022Z,18.1
2018-12-29T10:29:06.470Z,18.1
2018-12-29T10:30:08.897Z,18.1
2018-12-29T10:31:11.328Z,18.1
2018-12-29T10:32:13.752Z,18.1
2018-12-29T10:33:16.193Z,18.2
2018-12-29T10:34:18.615Z,18.2
2018-12-29T10:35:21.038Z,18.2
2018-12-29T10:36:23.472Z,18.2
2018-12-29T10:37:25.975Z,18.2
2018-12-29T10:38:28.413Z,18.2
2018-12-29T10:39:30.576Z,18.3
2018-12-29T10:40:32.749Z,18.4
2018-12-29T10:41:34.926Z,18.3
2018-12-29T10:42:37.077Z,18.3
2018-12-29T10:43:39.258Z,18.4
2018-12-29T10:44:41.140Z,18.4
2018-12-29T10:45:43.595Z,18.3
2018-12-29T10:46:45.745Z,18.4
2018-12-29T10:47:48.188Z,18.5
2018-12-29T10:48:50.616Z,18.4
2018-12-29T10:49:52.796Z,18.4
2018-12-29T10:50:55.222Z,18.5
2018-12-29T10:51:57.407Z,18.4
2018-12-29T10:52:59.845Z,18.2
2018-12-29T10:54:01.981Z,18.3
2018-12-29T10:55:04.430Z,18.2
2018-12-29T10:56:06.870Z,18
2018-12-29T10:57:09.005Z,18.1
2018-12-29T10:58:11.433Z,18
2018-12-29T10:59:13.595Z,18
2018-12-29T11:00:15.748Z,18
2018-12-29T11:01:17.914Z,18
2018-12-29T11:02:20.346Z,18
2018-12-29T11:03:22.804Z,17.9
2018-12-29T11:04:24.969Z,18
2018-12-29T11:05:26.858Z,17.9
2018-12-29T11:06:29.013Z,17.9
2018-12-29T11:07:31.188Z,17.9
2018-12-29T11:08:33.258Z,17.8
2018-12-29T11:09:35.682Z,17.8
2018-12-29T11:10:37.842Z,17.8
2018-12-29T11:11:40.038Z,17.6
2018-12-29T11:12:42.457Z,17.6
2018-12-29T11:13:44.904Z,17.6
2018-12-29T11:14:46.796Z,17.5
2018-12-29T11:15:48.932Z,17.5
2018-12-29T11:16:51.374Z,17.5
2018-12-29T11:17:53.811Z,17.4
2018-12-29T11:18:56.233Z,17.4
2018-12-29T11:19:58.664Z,17.3
2018-12-29T11:21:00.550Z,17.4
2018-12-29T11:22:04.213Z,17.3
2018-12-29T11:23:06.343Z,17.3
2018-12-29T11:24:08.784Z,17.3
2018-12-29T11:25:11.215Z,17.3
2018-12-29T11:26:13.386Z,17.3
2018-12-29T11:27:15.286Z,17.2
2018-12-29T11:28:17.726Z,17.2
2018-12-29T11:29:20.154Z,17.2
2018-12-29T11:30:22.066Z,17.3
2018-12-29T11:31:23.930Z,17.2
2018-12-29T11:32:25.801Z,17.2
2018-12-29T11:33:28.271Z,17.1
2018-12-29T11:34:30.415Z,17.2
2018-12-29T11:35:32.592Z,17.2
2018-12-29T11:36:35.018Z,17.2
2018-12-29T11:37:37.146Z,17.2
2018-12-29T11:38:39.291Z,17.2
2018-12-29T11:39:41.436Z,17.2
2018-12-29T11:40:43.373Z,17.1
2018-12-29T11:41:45.822Z,17.1
2018-12-29T11:42:48.344Z,17.1
2018-12-29T11:43:50.506Z,17.1
2018-12-29T11:44:52.941Z,17
2018-12-29T11:45:55.376Z,17
2018-12-29T11:46:57.536Z,17.1
2018-12-29T11:47:59.684Z,16.9
2018-12-29T11:49:02.550Z,17
2018-12-29T11:50:04.979Z,17
2018-12-29T11:51:07.417Z,17
2018-12-29T11:52:10.271Z,17
2018-12-29T11:53:13.298Z,17
2018-12-29T11:54:15.737Z,17.1
2018-12-29T11:55:18.202Z,17
2018-12-29T11:56:20.378Z,17
2018-12-29T11:57:22.537Z,17.1
2018-12-29T11:58:24.964Z,17
2018-12-29T11:59:26.828Z,17
2018-12-29T12:00:28.977Z,17
2018-12-29T12:01:31.412Z,17
2018-12-29T12:02:33.861Z,16.8
2018-12-29T12:03:35.770Z,17
2018-12-29T12:04:38.203Z,16.9
2018-12-29T12:05:40.647Z,16.9
2018-12-29T12:06:43.564Z,16.9
2018-12-29T12:07:46.743Z,17
2018-12-29T12:08:49.168Z,17
2018-12-29T12:09:51.334Z,16.9
2018-12-29T12:10:53.824Z,17
2018-12-29T12:11:55.701Z,17
2018-12-29T12:12:57.875Z,16.9
2018-12-29T12:14:00.035Z,17
2018-12-29T12:15:02.460Z,16.9
2018-12-29T12:16:04.632Z,17
2018-12-29T12:17:06.793Z,16.8
2018-12-29T12:18:08.977Z,17.1
2018-12-29T12:19:11.571Z,17.1
2018-12-29T12:20:14.248Z,17.3
2018-12-29T12:21:17.774Z,17.3
2018-12-29T12:22:20.227Z,17.3
2018-12-29T12:23:22.431Z,17.5
2018-12-29T12:24:24.867Z,17.5
2018-12-29T12:25:27.363Z,17.6
2018-12-29T12:26:30.493Z,17.7
2018-12-29T12:27:32.884Z,17.7
2018-12-29T12:28:35.869Z,17.7
2018-12-29T12:29:38.314Z,17.8
2018-12-29T12:30:40.844Z,17.8
2018-12-29T12:31:43.911Z,17.9
2018-12-29T12:32:46.364Z,17.9
2018-12-29T12:33:48.812Z,17.9
2018-12-29T12:34:50.983Z,17.9
2018-12-29T12:35:53.610Z,18
2018-12-29T12:36:55.937Z,17.9
2018-12-29T12:37:58.131Z,18
2018-12-29T12:39:00.975Z,18.1
2018-12-29T12:40:04.606Z,18
2018-12-29T12:41:06.773Z,18.1
2018-12-29T12:42:08.969Z,18.1
2018-12-29T12:43:11.446Z,18.1
2018-12-29T12:44:15.442Z,18.1
2018-12-29T12:45:17.948Z,18.2
2018-12-29T12:46:20.539Z,18.2
2018-12-29T12:47:24.049Z,18.2
2018-12-29T12:48:26.505Z,18.2
2018-12-29T12:49:29.079Z,18.2
2018-12-29T12:50:30.946Z,18.2
2018-12-29T12:51:33.123Z,18.1
2018-12-29T12:52:35.579Z,18.1
2018-12-29T12:53:38.025Z,18.2
2018-12-29T12:54:40.868Z,18.2
2018-12-29T12:55:44.684Z,18.1
2018-12-29T12:56:48.474Z,18.1
2018-12-29T12:57:52.013Z,18.1
2018-12-29T12:58:55.880Z,18.1
2018-12-29T12:59:59.863Z,18
2018-12-29T13:01:03.571Z,18.1
2018-12-29T13:02:06.467Z,18.1
2018-12-29T13:03:08.675Z,18.1
2018-12-29T13:04:10.833Z,18.1
2018-12-29T13:05:12.966Z,18.1
2018-12-29T13:06:15.129Z,18.1
2018-12-29T13:07:17.593Z,18.2
2018-12-29T13:08:19.481Z,18.1
2018-12-29T13:09:21.905Z,18.2
2018-12-29T13:10:24.069Z,18.2
2018-12-29T13:11:26.505Z,18.1
2018-12-29T13:12:28.943Z,18.2
2018-12-29T13:13:31.643Z,18.2
2018-12-29T13:14:34.346Z,18.3
2018-12-29T13:15:37.689Z,18.4
2018-12-29T13:16:39.851Z,18.3
2018-12-29T13:17:42.297Z,18.3
2018-12-29T13:18:44.795Z,18.4
2018-12-29T13:19:47.041Z,18.3
2018-12-29T13:20:49.208Z,18.3
2018-12-29T13:21:51.381Z,18.3
2018-12-29T13:22:53.533Z,18.4
2018-12-29T13:23:55.990Z,18.3
2018-12-29T13:24:58.419Z,18.3
2018-12-29T13:26:00.594Z,18.3
2018-12-29T13:27:03.023Z,18.4
2018-12-29T13:28:05.422Z,18.4
2018-12-29T13:29:08.723Z,18.4
2018-12-29T13:30:11.168Z,18.5
2018-12-29T13:31:13.630Z,18.5
2018-12-29T13:32:15.503Z,18.6
2018-12-29T13:33:17.926Z,18.5
2018-12-29T13:34:20.386Z,18.5
2018-12-29T13:35:22.833Z,18.4
2018-12-29T13:36:25.266Z,18.6
2018-12-29T13:37:27.411Z,18.4
2018-12-29T13:38:29.876Z,18.4
2018-12-29T13:39:32.300Z,18.4
2018-12-29T13:40:33.911Z,18.5
2018-12-29T13:41:36.654Z,18.4
2018-12-29T13:42:39.922Z,18.4
2018-12-29T13:43:42.357Z,18.5
2018-12-29T13:44:44.493Z,18.5
2018-12-29T13:45:46.979Z,18.5
2018-12-29T13:46:49.421Z,18.5
2018-12-29T13:47:51.575Z,18.6
2018-12-29T13:48:53.813Z,18.7
2018-12-29T13:49:56.301Z,18.6
2018-12-29T13:50:58.452Z,18.6
2018-12-29T13:52:00.638Z,18.7
2018-12-29T13:53:03.061Z,18.5
2018-12-29T13:54:05.228Z,18.5
2018-12-29T13:55:07.684Z,18.5
2018-12-29T13:56:10.710Z,18.6
2018-12-29T13:57:13.487Z,18.5